sensor_id;sensor_type;location;lat;lon;timestamp;pressure;altitude;pressure_sealevel;temperature;humidity
55490;BME280;44029;52.956;4.772;2023-02-22T00:00:20;101640.72;;;9.12;100.00
55490;BME280;44029;52.956;4.772;2023-02-22T00:02:55;101631.56;;;9.25;100.00
55490;BME280;44029;52.956;4.772;2023-02-22T00:05:26;101638.78;;;9.19;100.00
55490;BME280;44029;52.956;4.772;2023-02-22T00:07:52;101639.47;;;9.08;100.00
55490;BME280;44029;52.956;4.772;2023-02-22T00:10:18;101633.38;;;9.13;100.00
55490;BME280;44029;52.956;4.772;2023-02-22T00:12:51;101635.72;;;9.09;100.00
55490;BME280;44029;52.956;4.772;2023-02-22T00:15:19;101630.56;;;9.19;100.00
55490;BME280;44029;52.956;4.772;2023-02-22T00:17:45;101632.41;;;9.00;100.00
55490;BME280;44029;52.956;4.772;2023-02-22T00:20:12;101629.63;;;9.07;100.00
55490;BME280;44029;52.956;4.772;2023-02-22T00:22:44;101627.72;;;9.07;100.00
55490;BME280;44029;52.956;4.772;2023-02-22T00:25:17;101629.44;;;9.02;100.00
55490;BME280;44029;52.956;4.772;2023-02-22T00:27:47;101620.09;;;9.16;100.00
55490;BME280;44029;52.956;4.772;2023-02-22T00:30:20;101616.34;;;9.11;100.00
55490;BME280;44029;52.956;4.772;2023-02-22T00:32:47;101614.06;;;9.07;100.00
55490;BME280;44029;52.956;4.772;2023-02-22T00:35:14;101616.00;;;9.00;100.00
55490;BME280;44029;52.956;4.772;2023-02-22T00:37:40;101617.31;;;8.91;100.00
55490;BME280;44029;52.956;4.772;2023-02-22T00:40:10;101606.25;;;9.11;100.00
55490;BME280;44029;52.956;4.772;2023-02-22T00:42:36;101599.31;;;9.08;100.00
55490;BME280;44029;52.956;4.772;2023-02-22T00:45:01;101601.22;;;9.08;100.00
55490;BME280;44029;52.956;4.772;2023-02-22T00:47:27;101593.03;;;9.08;100.00
55490;BME280;44029;52.956;4.772;2023-02-22T00:49:54;101589.09;;;8.97;100.00
55490;BME280;44029;52.956;4.772;2023-02-22T00:52:19;101585.75;;;8.95;100.00
55490;BME280;44029;52.956;4.772;2023-02-22T00:54:44;101590.00;;;8.91;100.00
55490;BME280;44029;52.956;4.772;2023-02-22T00:57:10;101584.34;;;8.86;100.00
55490;BME280;44029;52.956;4.772;2023-02-22T00:59:35;101586.16;;;8.99;100.00
55490;BME280;44029;52.956;4.772;2023-02-22T01:02:00;101584.03;;;9.01;100.00
55490;BME280;44029;52.956;4.772;2023-02-22T01:04:26;101582.19;;;8.95;100.00
55490;BME280;44029;52.956;4.772;2023-02-22T01:06:51;101593.34;;;8.93;100.00
55490;BME280;44029;52.956;4.772;2023-02-22T01:09:18;101591.44;;;8.94;100.00
55490;BME280;44029;52.956;4.772;2023-02-22T01:11:43;101581.28;;;9.01;100.00
55490;BME280;44029;52.956;4.772;2023-02-22T01:14:09;101590.00;;;8.91;100.00
55490;BME280;44029;52.956;4.772;2023-02-22T01:16:35;101591.50;;;8.87;100.00
55490;BME280;44029;52.956;4.772;2023-02-22T01:19:01;101579.88;;;8.92;100.00
55490;BME280;44029;52.956;4.772;2023-02-22T01:21:26;101578.16;;;8.97;100.00
55490;BME280;44029;52.956;4.772;2023-02-22T01:23:52;101576.50;;;8.96;100.00
55490;BME280;44029;52.956;4.772;2023-02-22T01:26:19;101584.56;;;8.84;100.00
55490;BME280;44029;52.956;4.772;2023-02-22T01:28:44;101575.66;;;8.96;100.00
55490;BME280;44029;52.956;4.772;2023-02-22T01:31:10;101570.66;;;8.93;100.00
55490;BME280;44029;52.956;4.772;2023-02-22T01:33:36;101584.13;;;8.87;100.00
55490;BME280;44029;52.956;4.772;2023-02-22T01:36:02;101577.03;;;8.80;100.00
55490;BME280;44029;52.956;4.772;2023-02-22T01:38:27;101577.03;;;8.80;100.00
55490;BME280;44029;52.956;4.772;2023-02-22T01:40:53;101571.50;;;8.86;100.00
55490;BME280;44029;52.956;4.772;2023-02-22T01:43:22;101575.00;;;9.00;100.00
55490;BME280;44029;52.956;4.772;2023-02-22T01:45:52;101570.66;;;8.93;100.00
55490;BME280;44029;52.956;4.772;2023-02-22T01:50:59;101568.94;;;8.98;100.00
55490;BME280;44029;52.956;4.772;2023-02-22T01:53:31;101573.16;;;8.94;100.00
55490;BME280;44029;52.956;4.772;2023-02-22T01:55:59;101568.00;;;8.79;100.00
55490;BME280;44029;52.956;4.772;2023-02-22T01:58:27;101568.75;;;8.93;100.00
55490;BME280;44029;52.956;4.772;2023-02-22T02:00:54;101565.44;;;8.84;100.00
55490;BME280;44029;52.956;4.772;2023-02-22T02:03:22;101566.16;;;8.73;100.00
55490;BME280;44029;52.956;4.772;2023-02-22T02:05:51;101563.56;;;8.85;100.00
55490;BME280;44029;52.956;4.772;2023-02-22T02:08:48;101561.44;;;8.87;100.00
55490;BME280;44029;52.956;4.772;2023-02-22T02:11:19;101556.41;;;8.84;100.00
55490;BME280;44029;52.956;4.772;2023-02-22T02:13:46;101552.31;;;8.68;100.00
55490;BME280;44029;52.956;4.772;2023-02-22T02:16:13;101552.66;;;8.78;100.00
55490;BME280;44029;52.956;4.772;2023-02-22T02:18:39;101553.06;;;8.82;100.00
55490;BME280;44029;52.956;4.772;2023-02-22T02:21:37;101542.31;;;8.87;100.00
55490;BME280;44029;52.956;4.772;2023-02-22T02:24:18;101546.81;;;8.75;100.00
55490;BME280;44029;52.956;4.772;2023-02-22T02:40:38;101535.44;;;8.78;100.00
55490;BME280;44029;52.956;4.772;2023-02-22T02:43:45;101530.09;;;8.89;100.00
55490;BME280;44029;52.956;4.772;2023-02-22T02:46:15;101527.50;;;8.69;100.00
55490;BME280;44029;52.956;4.772;2023-02-22T02:48:50;101524.06;;;8.81;100.00
55490;BME280;44029;52.956;4.772;2023-02-22T02:51:20;101517.88;;;8.67;100.00
55490;BME280;44029;52.956;4.772;2023-02-22T02:53:47;101509.88;;;8.65;100.00
55490;BME280;44029;52.956;4.772;2023-02-22T02:56:16;101516.63;;;8.63;100.00
55490;BME280;44029;52.956;4.772;2023-02-22T02:58:59;101516.63;;;8.63;100.00
55490;BME280;44029;52.956;4.772;2023-02-22T03:10:42;101501.09;;;8.63;100.00
55490;BME280;44029;52.956;4.772;2023-02-22T03:21:33;101491.91;;;8.51;100.00
55490;BME280;44029;52.956;4.772;2023-02-22T03:24:10;101486.03;;;8.54;100.00
55490;BME280;44029;52.956;4.772;2023-02-22T03:26:42;101480.91;;;8.64;100.00
55490;BME280;44029;52.956;4.772;2023-02-22T03:29:11;101489.66;;;8.48;100.00
55490;BME280;44029;52.956;4.772;2023-02-22T03:31:43;101487.84;;;8.60;100.00
55490;BME280;44029;52.956;4.772;2023-02-22T03:34:16;101480.91;;;8.64;100.00
55490;BME280;44029;52.956;4.772;2023-02-22T03:36:46;101482.53;;;8.72;100.00
55490;BME280;44029;52.956;4.772;2023-02-22T03:39:15;101476.06;;;8.66;100.00
55490;BME280;44029;52.956;4.772;2023-02-22T03:41:44;101485.91;;;8.67;100.00
55490;BME280;44029;52.956;4.772;2023-02-22T03:44:21;101482.75;;;8.70;100.00
55490;BME280;44029;52.956;4.772;2023-02-22T03:46:50;101481.75;;;8.65;100.00
55490;BME280;44029;52.956;4.772;2023-02-22T03:49:35;101482.19;;;8.62;100.00
55490;BME280;44029;52.956;4.772;2023-02-22T03:52:02;101468.44;;;8.43;100.00
55490;BME280;44029;52.956;4.772;2023-02-22T03:54:28;101473.06;;;8.36;100.00
55490;BME280;44029;52.956;4.772;2023-02-22T03:56:57;101473.41;;;8.53;100.00
55490;BME280;44029;52.956;4.772;2023-02-22T03:59:23;101473.06;;;8.36;100.00
55490;BME280;44029;52.956;4.772;2023-02-22T04:01:52;101483.25;;;8.22;100.00
55490;BME280;44029;52.956;4.772;2023-02-22T04:04:18;101472.34;;;8.22;100.00
55490;BME280;44029;52.956;4.772;2023-02-22T04:06:45;101475.69;;;8.24;100.00
55490;BME280;44029;52.956;4.772;2023-02-22T04:09:12;101467.53;;;8.18;100.00
55490;BME280;44029;52.956;4.772;2023-02-22T04:11:38;101465.00;;;8.16;100.00
55490;BME280;44029;52.956;4.772;2023-02-22T04:14:03;101469.00;;;8.20;100.00
55490;BME280;44029;52.956;4.772;2023-02-22T04:16:29;101464.75;;;8.24;100.00
55490;BME280;44029;52.956;4.772;2023-02-22T04:18:54;101455.69;;;8.30;100.00
55490;BME280;44029;52.956;4.772;2023-02-22T04:21:20;101454.69;;;8.25;100.00
55490;BME280;44029;52.956;4.772;2023-02-22T04:23:45;101446.53;;;8.18;100.00
55490;BME280;44029;52.956;4.772;2023-02-22T04:26:10;101444.88;;;8.10;100.00
55490;BME280;44029;52.956;4.772;2023-02-22T04:28:36;101448.47;;;8.11;100.00
55490;BME280;44029;52.956;4.772;2023-02-22T04:31:01;101444.06;;;8.10;100.00
55490;BME280;44029;52.956;4.772;2023-02-22T04:33:26;101447.63;;;8.10;100.00
55490;BME280;44029;52.956;4.772;2023-02-22T04:35:52;101437.59;;;8.04;100.00
55490;BME280;44029;52.956;4.772;2023-02-22T04:38:17;101436.31;;;8.07;100.00
55490;BME280;44029;52.956;4.772;2023-02-22T04:40:42;101442.44;;;8.02;100.00
55490;BME280;44029;52.956;4.772;2023-02-22T04:43:08;101437.78;;;8.09;100.00
55490;BME280;44029;52.956;4.772;2023-02-22T04:45:33;101433.44;;;7.95;100.00
55490;BME280;44029;52.956;4.772;2023-02-22T04:47:58;101427.59;;;7.91;100.00
55490;BME280;44029;52.956;4.772;2023-02-22T04:50:24;101423.44;;;7.82;100.00
55490;BME280;44029;52.956;4.772;2023-02-22T04:52:49;101420.34;;;7.72;100.00
55490;BME280;44029;52.956;4.772;2023-02-22T04:55:15;101406.63;;;7.85;100.00
55490;BME280;44029;52.956;4.772;2023-02-22T04:57:40;101407.88;;;7.89;100.00
55490;BME280;44029;52.956;4.772;2023-02-22T05:00:07;101408.41;;;7.66;100.00
55490;BME280;44029;52.956;4.772;2023-02-22T05:02:36;101398.56;;;7.59;100.00
55490;BME280;44029;52.956;4.772;2023-02-22T05:05:03;101395.19;;;7.70;100.00
55490;BME280;44029;52.956;4.772;2023-02-22T05:07:28;101394.72;;;7.73;100.00
55490;BME280;44029;52.956;4.772;2023-02-22T05:09:53;101400.66;;;7.70;100.00
55490;BME280;44029;52.956;4.772;2023-02-22T05:12:19;101396.22;;;7.76;100.00
55490;BME280;44029;52.956;4.772;2023-02-22T05:14:45;101387.78;;;7.77;100.00
55490;BME280;44029;52.956;4.772;2023-02-22T05:17:11;101391.59;;;7.76;100.00
55490;BME280;44029;52.956;4.772;2023-02-22T05:19:36;101398.56;;;7.65;100.00
55490;BME280;44029;52.956;4.772;2023-02-22T05:22:02;101388.75;;;7.58;100.00
55490;BME280;44029;52.956;4.772;2023-02-22T05:24:27;101397.16;;;7.49;100.00
55490;BME280;44029;52.956;4.772;2023-02-22T05:26:53;101386.28;;;7.43;100.00
55490;BME280;44029;52.956;4.772;2023-02-22T05:29:18;101391.97;;;7.34;100.00
55490;BME280;44029;52.956;4.772;2023-02-22T05:31:44;101388.97;;;7.49;100.00
55490;BME280;44029;52.956;4.772;2023-02-22T05:34:10;101388.34;;;7.47;100.00
55490;BME280;44029;52.956;4.772;2023-02-22T05:36:35;101389.34;;;7.66;100.00
55490;BME280;44029;52.956;4.772;2023-02-22T05:39:00;101377.44;;;7.54;100.00
55490;BME280;44029;52.956;4.772;2023-02-22T05:41:27;101380.78;;;7.56;100.00
55490;BME280;44029;52.956;4.772;2023-02-22T05:43:52;101373.53;;;7.30;100.00
55490;BME280;44029;52.956;4.772;2023-02-22T05:46:18;101368.28;;;7.35;100.00
55490;BME280;44029;52.956;4.772;2023-02-22T05:48:43;101365.31;;;7.36;100.00
55490;BME280;44029;52.956;4.772;2023-02-22T05:51:08;101361.56;;;7.31;100.00
55490;BME280;44029;52.956;4.772;2023-02-22T05:53:35;101354.25;;;7.31;100.00
55490;BME280;44029;52.956;4.772;2023-02-22T05:56:01;101357.19;;;7.30;100.00
55490;BME280;44029;52.956;4.772;2023-02-22T05:58:26;101362.50;;;7.18;100.00
55490;BME280;44029;52.956;4.772;2023-02-22T06:00:52;101362.69;;;7.16;100.00
55490;BME280;44029;52.956;4.772;2023-02-22T06:03:17;101359.09;;;7.23;100.00
55490;BME280;44029;52.956;4.772;2023-02-22T06:05:42;101354.94;;;7.13;100.00
55490;BME280;44029;52.956;4.772;2023-02-22T06:08:08;101347.19;;;7.17;100.00
55490;BME280;44029;52.956;4.772;2023-02-22T06:10:33;101344.03;;;7.20;100.00
55490;BME280;44029;52.956;4.772;2023-02-22T06:13:02;101355.13;;;7.19;100.00
55490;BME280;44029;52.956;4.772;2023-02-22T06:15:28;101351.53;;;7.25;100.00
55490;BME280;44029;52.956;4.772;2023-02-22T06:17:55;101357.41;;;7.22;100.00
55490;BME280;44029;52.956;4.772;2023-02-22T06:20:22;101349.69;;;7.19;100.00
55490;BME280;44029;52.956;4.772;2023-02-22T06:22:49;101362.28;;;7.13;100.00
55490;BME280;44029;52.956;4.772;2023-02-22T06:25:17;101356.38;;;7.23;100.00
55490;BME280;44029;52.956;4.772;2023-02-22T06:27:42;101363.38;;;7.05;100.00
55490;BME280;44029;52.956;4.772;2023-02-22T06:30:10;101351.00;;;7.03;100.00
55490;BME280;44029;52.956;4.772;2023-02-22T06:32:36;101354.78;;;6.95;100.00
55490;BME280;44029;52.956;4.772;2023-02-22T06:35:01;101364.44;;;6.91;100.00
55490;BME280;44029;52.956;4.772;2023-02-22T06:37:26;101356.69;;;6.88;100.00
55490;BME280;44029;52.956;4.772;2023-02-22T06:39:52;101352.06;;;6.95;100.00
55490;BME280;44029;52.956;4.772;2023-02-22T06:42:17;101356.47;;;6.96;100.00
55490;BME280;44029;52.956;4.772;2023-02-22T06:44:43;101353.75;;;6.96;100.00
55490;BME280;44029;52.956;4.772;2023-02-22T06:47:08;101354.78;;;6.95;100.00
55490;BME280;44029;52.956;4.772;2023-02-22T06:49:33;101353.59;;;6.71;100.00
55490;BME280;44029;52.956;4.772;2023-02-22T06:51:59;101356.47;;;6.83;100.00
55490;BME280;44029;52.956;4.772;2023-02-22T06:54:24;101344.97;;;6.87;100.00
55490;BME280;44029;52.956;4.772;2023-02-22T06:56:49;101350.84;;;6.77;100.00
55490;BME280;44029;52.956;4.772;2023-02-22T06:59:15;101347.69;;;6.87;100.00
55490;BME280;44029;52.956;4.772;2023-02-22T07:01:41;101351.66;;;6.98;100.00
55490;BME280;44029;52.956;4.772;2023-02-22T07:04:06;101354.38;;;6.91;100.00
55490;BME280;44029;52.956;4.772;2023-02-22T07:06:32;101348.09;;;6.84;100.00
55490;BME280;44029;52.956;4.772;2023-02-22T07:08:57;101355.81;;;7.01;100.00
55490;BME280;44029;52.956;4.772;2023-02-22T07:11:23;101357.94;;;6.92;100.00
55490;BME280;44029;52.956;4.772;2023-02-22T07:13:48;101347.84;;;6.99;100.00
55490;BME280;44029;52.956;4.772;2023-02-22T07:16:14;101347.47;;;6.89;100.00
55490;BME280;44029;52.956;4.772;2023-02-22T07:18:39;101345.81;;;6.81;100.00
55490;BME280;44029;52.956;4.772;2023-02-22T07:21:04;101361.31;;;6.87;100.00
55490;BME280;44029;52.956;4.772;2023-02-22T07:23:30;101353.75;;;6.89;100.00
55490;BME280;44029;52.956;4.772;2023-02-22T07:25:59;101359.56;;;7.06;100.00
55490;BME280;44029;52.956;4.772;2023-02-22T07:28:24;101367.38;;;6.83;100.00
55490;BME280;44029;52.956;4.772;2023-02-22T07:30:49;101363.78;;;6.95;100.00
55490;BME280;44029;52.956;4.772;2023-02-22T07:33:15;101363.78;;;7.09;100.00
55490;BME280;44029;52.956;4.772;2023-02-22T07:35:45;101362.28;;;7.06;100.00
55490;BME280;44029;52.956;4.772;2023-02-22T07:38:13;101369.44;;;7.07;100.00
55490;BME280;44029;52.956;4.772;2023-02-22T07:40:38;101367.56;;;6.88;100.00
55490;BME280;44029;52.956;4.772;2023-02-22T07:43:17;101365.63;;;7.15;100.00
55490;BME280;44029;52.956;4.772;2023-02-22T07:45:43;101362.09;;;7.01;100.00
55490;BME280;44029;52.956;4.772;2023-02-22T07:48:10;101362.72;;;7.03;100.00
55490;BME280;44029;52.956;4.772;2023-02-22T07:50:37;101360.22;;;6.95;100.00
55490;BME280;44029;52.956;4.772;2023-02-22T07:53:05;101356.63;;;7.14;100.00
55490;BME280;44029;52.956;4.772;2023-02-22T07:55:31;101357.47;;;7.08;100.00
55490;BME280;44029;52.956;4.772;2023-02-22T07:57:59;101352.41;;;7.19;100.00
55490;BME280;44029;52.956;4.772;2023-02-22T08:00:30;101350.72;;;7.18;100.00
55490;BME280;44029;52.956;4.772;2023-02-22T08:02:56;101336.06;;;7.19;100.00
55490;BME280;44029;52.956;4.772;2023-02-22T08:05:23;101331.59;;;7.31;100.00
55490;BME280;44029;52.956;4.772;2023-02-22T08:07:49;101331.25;;;7.14;100.00
55490;BME280;44029;52.956;4.772;2023-02-22T08:10:18;101342.00;;;7.47;100.00
55490;BME280;44029;52.956;4.772;2023-02-22T08:12:44;101356.38;;;7.23;100.00
55490;BME280;44029;52.956;4.772;2023-02-22T08:15:16;101360.59;;;7.64;100.00
55490;BME280;44029;52.956;4.772;2023-02-22T08:17:41;101336.88;;;7.26;100.00
55490;BME280;44029;52.956;4.772;2023-02-22T08:20:07;101332.53;;;7.57;100.00
55490;BME280;44029;52.956;4.772;2023-02-22T08:22:32;101336.75;;;7.52;100.00
55490;BME280;44029;52.956;4.772;2023-02-22T08:24:58;101326.72;;;7.46;100.00
55490;BME280;44029;52.956;4.772;2023-02-22T08:27:27;101333.59;;;7.55;100.00
55490;BME280;44029;52.956;4.772;2023-02-22T08:29:53;101336.75;;;7.52;100.00
55490;BME280;44029;52.956;4.772;2023-02-22T08:32:20;101321.22;;;7.14;100.00
55490;BME280;44029;52.956;4.772;2023-02-22T08:34:45;101326.34;;;7.36;100.00
55490;BME280;44029;52.956;4.772;2023-02-22T08:37:11;101321.28;;;7.46;100.00
55490;BME280;44029;52.956;4.772;2023-02-22T08:39:37;101335.09;;;7.45;100.00
55490;BME280;44029;52.956;4.772;2023-02-22T08:42:02;101338.78;;;7.64;100.00
55490;BME280;44029;52.956;4.772;2023-02-22T08:44:27;101337.84;;;7.45;100.00
55490;BME280;44029;52.956;4.772;2023-02-22T08:46:53;101334.63;;;7.54;100.00
55490;BME280;44029;52.956;4.772;2023-02-22T08:49:19;101340.28;;;7.53;100.00
55490;BME280;44029;52.956;4.772;2023-02-22T08:51:44;101328.44;;;7.41;100.00
55490;BME280;44029;52.956;4.772;2023-02-22T08:54:10;101320.66;;;7.44;100.00
55490;BME280;44029;52.956;4.772;2023-02-22T08:56:35;101317.19;;;7.62;100.00
55490;BME280;44029;52.956;4.772;2023-02-22T08:59:01;101315.72;;;7.60;100.00
55490;BME280;44029;52.956;4.772;2023-02-22T09:01:26;101310.72;;;7.57;100.00
55490;BME280;44029;52.956;4.772;2023-02-22T09:03:53;101297.22;;;7.68;100.00
55490;BME280;44029;52.956;4.772;2023-02-22T09:06:20;101301.88;;;7.61;100.00
55490;BME280;44029;52.956;4.772;2023-02-22T09:08:45;101294.75;;;7.60;100.00
55490;BME280;44029;52.956;4.772;2023-02-22T09:11:11;101295.44;;;7.81;100.00
55490;BME280;44029;52.956;4.772;2023-02-22T09:13:36;101286.66;;;7.79;100.00
55490;BME280;44029;52.956;4.772;2023-02-22T09:16:01;101281.38;;;7.84;100.00
55490;BME280;44029;52.956;4.772;2023-02-22T09:18:27;101285.72;;;7.91;100.00
55490;BME280;44029;52.956;4.772;2023-02-22T09:20:53;101288.13;;;7.81;100.00
55490;BME280;44029;52.956;4.772;2023-02-22T09:23:18;101285.72;;;7.66;100.00
55490;BME280;44029;52.956;4.772;2023-02-22T09:25:46;101284.50;;;7.87;100.00
55490;BME280;44029;52.956;4.772;2023-02-22T09:28:11;101290.69;;;8.01;100.00
55490;BME280;44029;52.956;4.772;2023-02-22T09:30:37;101295.19;;;8.14;100.00
55490;BME280;44029;52.956;4.772;2023-02-22T09:33:14;101289.19;;;8.56;100.00
55490;BME280;44029;52.956;4.772;2023-02-22T09:35:42;101291.25;;;8.10;100.00
55490;BME280;44029;52.956;4.772;2023-02-22T09:38:12;101287.56;;;8.23;100.00
55490;BME280;44029;52.956;4.772;2023-02-22T09:40:41;101285.41;;;8.31;100.00
55490;BME280;44029;52.956;4.772;2023-02-22T09:43:16;101280.47;;;8.22;100.00
55490;BME280;44029;52.956;4.772;2023-02-22T09:46:04;101279.13;;;8.31;100.00
55490;BME280;44029;52.956;4.772;2023-02-22T09:48:58;101282.50;;;8.26;100.00
55490;BME280;44029;52.956;4.772;2023-02-22T09:51:36;101281.72;;;8.19;100.00
55490;BME280;44029;52.956;4.772;2023-02-22T09:54:05;101270.38;;;8.22;100.00
55490;BME280;44029;52.956;4.772;2023-02-22T09:56:34;101266.06;;;8.08;100.00
55490;BME280;44029;52.956;4.772;2023-02-22T09:59:03;101266.81;;;8.22;100.00
55490;BME280;44029;52.956;4.772;2023-02-22T10:01:40;101248.78;;;8.39;100.00
55490;BME280;44029;52.956;4.772;2023-02-22T10:07:13;101260.88;;;8.50;100.00
55490;BME280;44029;52.956;4.772;2023-02-22T10:09:41;101255.94;;;8.40;100.00
55490;BME280;44029;52.956;4.772;2023-02-22T10:12:15;101259.03;;;8.44;100.00
55490;BME280;44029;52.956;4.772;2023-02-22T10:15:55;101262.22;;;8.41;100.00
55490;BME280;44029;52.956;4.772;2023-02-22T10:21:34;101255.88;;;8.47;100.00
55490;BME280;44029;52.956;4.772;2023-02-22T10:26:48;101250.13;;;8.74;100.00
55490;BME280;44029;52.956;4.772;2023-02-22T10:29:26;101252.88;;;8.74;100.00
55490;BME280;44029;52.956;4.772;2023-02-22T10:31:59;101239.22;;;8.74;100.00
55490;BME280;44029;52.956;4.772;2023-02-22T10:34:29;101239.88;;;8.69;100.00
55490;BME280;44029;52.956;4.772;2023-02-22T10:37:17;101247.91;;;8.82;100.00
55490;BME280;44029;52.956;4.772;2023-02-22T10:39:46;101228.25;;;8.92;100.00
55490;BME280;44029;52.956;4.772;2023-02-22T10:42:12;101239.19;;;8.92;100.00
55490;BME280;44029;52.956;4.772;2023-02-22T10:44:38;101232.78;;;9.17;100.00
55490;BME280;44029;52.956;4.772;2023-02-22T10:47:07;101233.03;;;9.27;100.00
55490;BME280;44029;52.956;4.772;2023-02-22T10:49:38;101242.78;;;9.23;100.00
55490;BME280;44029;52.956;4.772;2023-02-22T10:52:25;101230.75;;;9.54;100.00
55490;BME280;44029;52.956;4.772;2023-02-22T10:54:53;101235.41;;;9.54;100.00
55490;BME280;44029;52.956;4.772;2023-02-22T10:57:28;101229.44;;;9.57;100.00
55490;BME280;44029;52.956;4.772;2023-02-22T10:59:56;101236.59;;;9.58;100.00
55490;BME280;44029;52.956;4.772;2023-02-22T11:02:33;101241.16;;;9.87;100.00
55490;BME280;44029;52.956;4.772;2023-02-22T11:05:01;101248.25;;;9.65;100.00
55490;BME280;44029;52.956;4.772;2023-02-22T11:07:33;101245.91;;;9.68;100.00
55490;BME280;44029;52.956;4.772;2023-02-22T11:10:00;101253.06;;;9.81;100.00
55490;BME280;44029;52.956;4.772;2023-02-22T11:12:31;101250.09;;;9.95;100.00
55490;BME280;44029;52.956;4.772;2023-02-22T11:17:44;101237.34;;;9.77;100.00
55490;BME280;44029;52.956;4.772;2023-02-22T11:20:17;101228.22;;;10.18;100.00
55490;BME280;44029;52.956;4.772;2023-02-22T11:22:45;101230.69;;;9.84;100.00
55490;BME280;44029;52.956;4.772;2023-02-22T11:25:17;101235.94;;;10.21;100.00
55490;BME280;44029;52.956;4.772;2023-02-22T11:27:44;101231.50;;;9.73;100.00
55490;BME280;44029;52.956;4.772;2023-02-22T11:30:30;101235.69;;;9.76;100.00
55490;BME280;44029;52.956;4.772;2023-02-22T11:35:59;101227.03;;;10.14;100.00
55490;BME280;44029;52.956;4.772;2023-02-22T11:38:28;101209.50;;;9.92;100.00
55490;BME280;44029;52.956;4.772;2023-02-22T11:41:45;101208.69;;;10.03;100.00
55490;BME280;44029;52.956;4.772;2023-02-22T11:43:51;101203.34;;;9.96;100.00
55490;BME280;44029;52.956;4.772;2023-02-22T11:46:28;101198.94;;;10.07;100.00
55490;BME280;44029;52.956;4.772;2023-02-22T11:49:03;101201.22;;;9.86;100.00
55490;BME280;44029;52.956;4.772;2023-02-22T11:51:44;101194.78;;;10.04;100.00
55490;BME280;44029;52.956;4.772;2023-02-22T12:05:09;101174.56;;;10.81;100.00
55490;BME280;44029;52.956;4.772;2023-02-22T12:08:29;101189.38;;;10.69;100.00
55490;BME280;44029;52.956;4.772;2023-02-22T12:10:42;101183.66;;;10.58;100.00
55490;BME280;44029;52.956;4.772;2023-02-22T12:16:13;101175.94;;;10.55;100.00
55490;BME280;44029;52.956;4.772;2023-02-22T12:21:33;101165.59;;;10.45;100.00
55490;BME280;44029;52.956;4.772;2023-02-22T12:24:06;101154.34;;;10.71;100.00
55490;BME280;44029;52.956;4.772;2023-02-22T12:26:40;101155.16;;;10.71;100.00
55490;BME280;44029;52.956;4.772;2023-02-22T12:29:18;101164.25;;;10.60;100.00
55490;BME280;44029;52.956;4.772;2023-02-22T12:31:48;101156.00;;;10.72;100.00
55490;BME280;44029;52.956;4.772;2023-02-22T12:34:37;101146.34;;;10.69;100.00
55490;BME280;44029;52.956;4.772;2023-02-22T12:40:02;101161.06;;;10.51;100.00
55490;BME280;44029;52.956;4.772;2023-02-22T12:45:23;101161.78;;;10.87;100.00
55490;BME280;44029;52.956;4.772;2023-02-22T12:48:24;101167.97;;;10.82;100.00
55490;BME280;44029;52.956;4.772;2023-02-22T12:50:48;101162.25;;;10.84;100.00
55490;BME280;44029;52.956;4.772;2023-02-22T12:53:21;101167.63;;;10.91;100.00
55490;BME280;44029;52.956;4.772;2023-02-22T12:55:53;101165.28;;;10.71;100.00
55490;BME280;44029;52.956;4.772;2023-02-22T12:58:44;101157.75;;;10.78;100.00
55490;BME280;44029;52.956;4.772;2023-02-22T13:01:23;101152.34;;;10.95;100.00
55490;BME280;44029;52.956;4.772;2023-02-22T13:03:53;101144.22;;;11.00;100.00
55490;BME280;44029;52.956;4.772;2023-02-22T13:14:51;101133.78;;;11.31;100.00
55490;BME280;44029;52.956;4.772;2023-02-22T13:19:51;101147.34;;;11.37;100.00
55490;BME280;44029;52.956;4.772;2023-02-22T13:22:25;101144.69;;;11.59;100.00
55490;BME280;44029;52.956;4.772;2023-02-22T13:25:13;101142.75;;;11.77;100.00
55490;BME280;44029;52.956;4.772;2023-02-22T13:27:58;101153.56;;;11.84;100.00
55490;BME280;44029;52.956;4.772;2023-02-22T13:51:44;101136.97;;;11.73;100.00
55490;BME280;44029;52.956;4.772;2023-02-22T13:56:47;101120.56;;;11.78;100.00
55490;BME280;44029;52.956;4.772;2023-02-22T13:59:39;101116.97;;;11.95;100.00
55490;BME280;44029;52.956;4.772;2023-02-22T14:02:05;101112.97;;;11.86;100.00
55490;BME280;44029;52.956;4.772;2023-02-22T14:04:37;101116.66;;;11.91;100.00
55490;BME280;44029;52.956;4.772;2023-02-22T14:09:55;101132.91;;;11.59;100.00
55490;BME280;44029;52.956;4.772;2023-02-22T14:17:43;101131.38;;;11.68;100.00
55490;BME280;44029;52.956;4.772;2023-02-22T14:22:42;101135.06;;;11.57;100.00
55490;BME280;44029;52.956;4.772;2023-02-22T14:25:48;101124.53;;;11.88;100.00
55490;BME280;44029;52.956;4.772;2023-02-22T14:28:32;101129.03;;;11.60;100.00
55490;BME280;44029;52.956;4.772;2023-02-22T14:36:21;101141.84;;;11.37;100.00
55490;BME280;44029;52.956;4.772;2023-02-22T14:38:48;101144.84;;;11.36;100.00
55490;BME280;44029;52.956;4.772;2023-02-22T14:41:20;101141.50;;;11.34;100.00
55490;BME280;44029;52.956;4.772;2023-02-22T14:43:52;101133.03;;;11.18;100.00
55490;BME280;44029;52.956;4.772;2023-02-22T14:46:21;101142.31;;;11.17;100.00
55490;BME280;44029;52.956;4.772;2023-02-22T14:48:51;101136.81;;;11.00;100.00
55490;BME280;44029;52.956;4.772;2023-02-22T14:51:24;101138.66;;;11.12;100.00
55490;BME280;44029;52.956;4.772;2023-02-22T14:53:54;101138.19;;;11.15;100.00
55490;BME280;44029;52.956;4.772;2023-02-22T14:56:32;101135.00;;;11.06;100.00
55490;BME280;44029;52.956;4.772;2023-02-22T15:01:38;101146.78;;;11.07;100.00
55490;BME280;44029;52.956;4.772;2023-02-22T15:04:34;101144.47;;;11.15;100.00